createdAt,value
2018-07-20T00:00:21.150Z,18.50
2018-07-20T00:02:50.349Z,18.50
2018-07-20T00:05:18.684Z,18.40
2018-07-20T00:07:47.118Z,18.40
2018-07-20T00:10:15.875Z,18.40
2018-07-20T00:12:44.285Z,18.40
2018-07-20T00:15:13.370Z,18.40
2018-07-20T00:17:41.712Z,18.30
2018-07-20T00:20:10.232Z,18.30
2018-07-20T00:22:39.443Z,18.30
2018-07-20T00:25:07.944Z,18.30
2018-07-20T00:27:36.273Z,18.30
2018-07-20T00:30:05.384Z,18.30
2018-07-20T00:32:34.549Z,18.30
2018-07-20T00:35:03.474Z,18.20
2018-07-20T00:37:32.606Z,18.20
2018-07-20T00:40:00.943Z,18.20
2018-07-20T00:42:30.090Z,18.20
2018-07-20T00:44:58.472Z,18.10
2018-07-20T00:47:26.790Z,18.20
2018-07-20T00:49:55.246Z,18.20
2018-07-20T00:52:23.583Z,18.20
2018-07-20T00:54:51.907Z,18.20
2018-07-20T00:57:20.292Z,18.20
2018-07-20T00:59:48.618Z,18.30
2018-07-20T01:02:16.976Z,18.20
2018-07-20T01:04:46.194Z,18.20
2018-07-20T01:07:14.514Z,18.20
2018-07-20T01:09:42.906Z,18.20
2018-07-20T01:12:11.234Z,18.10
2018-07-20T01:14:39.580Z,18.10
2018-07-20T01:17:07.900Z,18.10
2018-07-20T01:19:36.279Z,18.00
2018-07-20T01:22:04.623Z,18.00
2018-07-20T01:24:32.924Z,17.90
2018-07-20T01:27:01.301Z,17.90
2018-07-20T01:29:29.633Z,17.80
2018-07-20T01:31:58.063Z,17.80
2018-07-20T01:34:26.391Z,17.70
2018-07-20T01:36:54.724Z,17.70
2018-07-20T01:39:23.069Z,17.70
2018-07-20T01:41:52.165Z,17.70
2018-07-20T01:44:21.368Z,17.70
2018-07-20T01:46:49.727Z,17.70
2018-07-20T01:49:18.085Z,17.70
2018-07-20T01:51:46.448Z,17.60
2018-07-20T01:54:14.775Z,17.50
2018-07-20T01:56:43.899Z,17.50
2018-07-20T01:59:12.230Z,17.50
2018-07-20T02:01:40.668Z,17.50
2018-07-20T02:04:08.982Z,17.50
2018-07-20T02:06:37.356Z,17.50
2018-07-20T02:09:05.672Z,17.50
2018-07-20T02:11:35.453Z,17.50
2018-07-20T02:14:03.781Z,17.50
2018-07-20T02:16:32.150Z,17.60
2018-07-20T02:19:00.624Z,17.60
2018-07-20T02:21:29.747Z,17.60
2018-07-20T02:23:58.038Z,17.60
2018-07-20T02:26:26.396Z,17.60
2018-07-20T02:28:54.815Z,17.60
2018-07-20T02:31:23.144Z,17.60
2018-07-20T02:33:51.491Z,17.50
2018-07-20T02:36:19.824Z,17.50
2018-07-20T02:38:48.164Z,17.50
2018-07-20T02:41:16.545Z,17.50
2018-07-20T02:43:44.824Z,17.50
2018-07-20T02:46:13.956Z,17.50
2018-07-20T02:48:42.286Z,17.50
2018-07-20T02:51:10.630Z,17.50
2018-07-20T02:53:38.974Z,17.50
2018-07-20T02:56:07.293Z,17.50
2018-07-20T02:58:35.761Z,17.50
2018-07-20T03:01:04.095Z,17.50
2018-07-20T03:03:33.208Z,17.50
2018-07-20T03:06:01.580Z,17.50
2018-07-20T03:08:29.906Z,17.50
2018-07-20T03:10:58.260Z,17.50
2018-07-20T03:13:26.592Z,17.50
2018-07-20T03:15:55.779Z,17.50
2018-07-20T03:18:24.111Z,17.50
2018-07-20T03:20:52.525Z,17.50
2018-07-20T03:23:21.014Z,17.50
2018-07-20T03:25:50.232Z,17.50
2018-07-20T03:28:19.346Z,17.50
2018-07-20T03:30:47.793Z,17.50
2018-07-20T03:33:16.140Z,17.60
2018-07-20T03:35:44.522Z,17.50
2018-07-20T03:38:12.847Z,17.50
2018-07-20T03:40:41.979Z,17.60
2018-07-20T03:43:10.537Z,17.60
2018-07-20T03:45:38.884Z,17.60
2018-07-20T03:48:07.329Z,17.70
2018-07-20T03:50:35.664Z,17.70
2018-07-20T03:53:04.762Z,17.60
2018-07-20T03:55:33.213Z,17.60
2018-07-20T03:58:01.576Z,17.60
2018-07-20T04:00:29.908Z,17.60
2018-07-20T04:02:59.001Z,17.60
2018-07-20T04:05:28.104Z,17.60
2018-07-20T04:07:57.287Z,17.60
2018-07-20T04:10:25.595Z,17.60
2018-07-20T04:12:53.950Z,17.60
2018-07-20T04:15:23.045Z,17.60
2018-07-20T04:17:51.378Z,17.60
2018-07-20T04:20:19.704Z,17.60
2018-07-20T04:22:48.798Z,17.60
2018-07-20T04:25:17.154Z,17.60
2018-07-20T04:27:45.482Z,17.60
2018-07-20T04:30:13.842Z,17.60
2018-07-20T04:32:42.936Z,17.60
2018-07-20T04:35:12.104Z,17.60
2018-07-20T04:37:40.427Z,17.60
2018-07-20T04:40:08.761Z,17.60
2018-07-20T04:42:37.126Z,17.60
2018-07-20T04:45:05.428Z,17.70
2018-07-20T04:47:34.542Z,17.70
2018-07-20T04:50:02.992Z,17.80
2018-07-20T04:52:31.277Z,17.80
2018-07-20T04:55:00.390Z,17.90
2018-07-20T04:57:29.516Z,17.90
2018-07-20T04:59:57.852Z,17.90
2018-07-20T05:02:26.938Z,18.00
2018-07-20T05:04:55.358Z,17.90
2018-07-20T05:07:24.502Z,18.40
2018-07-20T05:09:52.950Z,18.30
2018-07-20T05:12:21.364Z,18.60
2018-07-20T05:14:49.706Z,18.70
2018-07-20T05:17:18.048Z,18.70
2018-07-20T05:19:46.426Z,18.80
2018-07-20T05:22:14.806Z,18.90
2018-07-20T05:24:43.186Z,18.90
2018-07-20T05:27:12.168Z,18.90
2018-07-20T05:29:40.534Z,18.90
2018-07-20T05:32:08.900Z,19.00
2018-07-20T05:34:37.253Z,19.00
2018-07-20T05:37:05.839Z,19.00
2018-07-20T05:39:34.204Z,19.00
2018-07-20T05:42:02.608Z,19.10
2018-07-20T05:44:30.976Z,19.20
2018-07-20T05:46:59.310Z,19.20
2018-07-20T05:49:27.722Z,19.20
2018-07-20T05:51:56.094Z,19.20
2018-07-20T05:54:25.301Z,19.30
2018-07-20T05:56:53.704Z,19.40
2018-07-20T05:59:22.357Z,19.50
2018-07-20T06:01:51.360Z,19.50
2018-07-20T06:04:19.728Z,19.60
2018-07-20T06:06:49.008Z,19.70
2018-07-20T06:09:17.353Z,19.80
2018-07-20T06:11:45.689Z,19.80
2018-07-20T06:14:14.897Z,19.90
2018-07-20T06:16:43.992Z,20.10
2018-07-20T06:19:13.184Z,20.10
2018-07-20T06:21:41.810Z,20.20
2018-07-20T06:24:10.167Z,20.30
2018-07-20T06:26:38.489Z,20.30
2018-07-20T06:29:07.737Z,20.40
2018-07-20T06:31:37.506Z,20.50
2018-07-20T06:34:05.826Z,20.50
2018-07-20T06:36:34.164Z,20.60
2018-07-20T06:39:02.922Z,20.80
2018-07-20T06:41:31.248Z,20.80
2018-07-20T06:44:00.339Z,20.80
2018-07-20T06:46:28.678Z,20.80
2018-07-20T06:48:57.024Z,20.80
2018-07-20T06:51:25.379Z,20.80
2018-07-20T06:53:54.474Z,20.80
2018-07-20T06:56:23.592Z,20.90
2018-07-20T06:58:51.969Z,20.90
2018-07-20T07:01:20.416Z,21.00
2018-07-20T07:03:49.774Z,21.10
2018-07-20T07:06:18.138Z,21.20
2018-07-20T07:08:46.730Z,21.40
2018-07-20T07:11:15.093Z,21.50
2018-07-20T07:13:44.164Z,21.60
2018-07-20T07:16:12.508Z,21.70
2018-07-20T07:18:40.962Z,21.80
2018-07-20T07:21:09.316Z,21.90
2018-07-20T07:23:38.438Z,22.00
2018-07-20T07:26:06.823Z,22.00
2018-07-20T07:28:35.236Z,22.00
2018-07-20T07:31:03.580Z,22.00
2018-07-20T07:33:31.952Z,22.00
2018-07-20T07:36:00.275Z,22.00
2018-07-20T07:38:28.702Z,22.00
2018-07-20T07:40:57.032Z,22.10
2018-07-20T07:43:25.436Z,22.20
2018-07-20T07:45:53.758Z,22.20
2018-07-20T07:48:22.154Z,22.20
2018-07-20T07:50:50.973Z,22.30
2018-07-20T07:53:19.327Z,22.30
2018-07-20T07:55:47.673Z,22.30
2018-07-20T07:58:16.010Z,22.40
2018-07-20T08:00:44.360Z,22.40
2018-07-20T08:03:13.152Z,22.40
2018-07-20T08:05:41.377Z,22.40
2018-07-20T08:08:10.505Z,22.50
2018-07-20T08:10:39.867Z,22.50
2018-07-20T08:13:08.962Z,22.70
2018-07-20T08:15:38.072Z,22.80
2018-07-20T08:18:07.175Z,22.80
2018-07-20T08:20:35.494Z,22.80
2018-07-20T08:23:04.776Z,22.70
2018-07-20T08:25:33.155Z,22.80
2018-07-20T08:28:01.515Z,23.00
2018-07-20T08:30:29.856Z,23.10
2018-07-20T08:32:58.195Z,23.30
2018-07-20T08:35:26.531Z,23.40
2018-07-20T08:37:55.712Z,23.80
2018-07-20T08:40:24.263Z,23.70
2018-07-20T08:42:52.591Z,23.90
2018-07-20T08:45:21.702Z,24.20
2018-07-20T08:47:50.203Z,24.20
2018-07-20T08:50:18.909Z,24.20
2018-07-20T08:52:47.203Z,24.30
2018-07-20T08:55:15.768Z,24.50
2018-07-20T08:57:44.111Z,24.60
2018-07-20T09:00:13.189Z,24.70
2018-07-20T09:02:41.715Z,24.60
2018-07-20T09:05:10.900Z,24.70
2018-07-20T09:07:39.234Z,24.80
2018-07-20T09:10:07.657Z,24.80
2018-07-20T09:12:36.040Z,24.80
2018-07-20T09:15:05.367Z,24.80
2018-07-20T09:17:33.807Z,24.90
2018-07-20T09:20:02.898Z,25.00
2018-07-20T09:22:31.271Z,25.00
2018-07-20T09:25:00.394Z,25.30
2018-07-20T09:27:28.723Z,25.30
2018-07-20T09:29:57.159Z,25.50
2018-07-20T09:32:25.525Z,25.50
2018-07-20T09:34:53.915Z,25.40
2018-07-20T09:37:22.827Z,25.40
2018-07-20T09:39:51.153Z,25.40
2018-07-20T09:42:20.242Z,25.80
2018-07-20T09:44:48.646Z,25.80
2018-07-20T09:47:16.986Z,26.00
2018-07-20T09:49:45.417Z,26.20
2018-07-20T09:52:13.754Z,26.40
2018-07-20T09:54:42.092Z,26.60
2018-07-20T09:57:10.680Z,26.80
2018-07-20T09:59:39.068Z,27.00
2018-07-20T10:02:07.410Z,27.20
2018-07-20T10:04:35.807Z,27.40
2018-07-20T10:07:04.150Z,27.70
2018-07-20T10:09:33.380Z,28.20
2018-07-20T10:12:01.750Z,28.20
2018-07-20T10:14:30.156Z,28.30
2018-07-20T10:16:58.509Z,28.30
2018-07-20T10:19:26.887Z,28.50
2018-07-20T10:21:55.587Z,28.60
2018-07-20T10:24:23.947Z,28.80
2018-07-20T10:26:53.209Z,28.90
2018-07-20T10:29:21.642Z,29.10
2018-07-20T10:31:50.014Z,29.20
2018-07-20T10:34:18.486Z,29.50
2018-07-20T10:36:46.888Z,29.60
2018-07-20T10:39:16.033Z,29.70
2018-07-20T10:41:44.349Z,29.90
2018-07-20T10:44:12.723Z,29.90
2018-07-20T10:46:41.050Z,29.90
2018-07-20T10:49:09.822Z,29.80
2018-07-20T10:51:38.147Z,30.00
2018-07-20T10:54:06.954Z,30.20
2018-07-20T10:56:35.343Z,30.40
2018-07-20T10:59:03.727Z,30.80
2018-07-20T11:01:32.150Z,30.90
2018-07-20T11:04:00.485Z,31.10
2018-07-20T11:06:28.845Z,31.20
2018-07-20T11:08:57.241Z,31.30
2018-07-20T11:11:25.637Z,31.50
2018-07-20T11:13:54.020Z,31.70
2018-07-20T11:16:22.363Z,31.80
2018-07-20T11:18:50.688Z,31.90
2018-07-20T11:21:19.031Z,31.90
2018-07-20T11:23:48.334Z,31.90
2018-07-20T11:26:16.876Z,31.80
2018-07-20T11:28:45.329Z,31.90
2018-07-20T11:31:13.725Z,32.10
2018-07-20T11:33:43.051Z,32.60
2018-07-20T11:36:13.228Z,33.00
2018-07-20T11:38:41.591Z,33.00
2018-07-20T11:41:09.939Z,33.00
2018-07-20T11:43:39.121Z,33.20
2018-07-20T11:46:07.568Z,33.10
2018-07-20T11:48:35.877Z,33.30
2018-07-20T11:51:04.228Z,33.40
2018-07-20T11:53:32.641Z,33.40
2018-07-20T11:56:02.133Z,33.40
2018-07-20T11:58:30.465Z,33.60
2018-07-20T12:00:58.799Z,33.50
2018-07-20T12:03:27.205Z,33.40
2018-07-20T12:05:55.559Z,33.30
2018-07-20T12:08:23.988Z,33.20
2018-07-20T12:10:52.327Z,33.20
2018-07-20T12:13:21.441Z,33.10
2018-07-20T12:15:49.856Z,33.10
2018-07-20T12:18:18.271Z,33.30
2018-07-20T12:20:46.693Z,33.30
2018-07-20T12:23:15.050Z,33.30
2018-07-20T12:25:44.170Z,32.90
2018-07-20T12:28:12.587Z,32.90
2018-07-20T12:30:41.626Z,32.20
2018-07-20T12:33:10.751Z,31.90
2018-07-20T12:35:39.083Z,31.80
2018-07-20T12:38:08.184Z,31.40
2018-07-20T12:40:36.743Z,31.30
2018-07-20T12:43:05.137Z,31.40
2018-07-20T12:45:34.381Z,31.70
2018-07-20T12:48:02.718Z,32.20
2018-07-20T12:50:31.893Z,33.60
2018-07-20T12:53:00.231Z,33.50
2018-07-20T12:55:28.738Z,34.30
2018-07-20T12:57:57.120Z,34.90
2018-07-20T13:00:25.467Z,35.20
2018-07-20T13:02:53.841Z,35.30
2018-07-20T13:05:22.297Z,35.40
2018-07-20T13:07:51.424Z,35.70
2018-07-20T13:10:19.784Z,35.70
2018-07-20T13:12:49.006Z,35.80
2018-07-20T13:15:17.353Z,35.70
2018-07-20T13:17:45.712Z,35.50
2018-07-20T13:20:14.056Z,35.50
2018-07-20T13:22:42.427Z,35.30
2018-07-20T13:25:11.757Z,35.20
2018-07-20T13:27:40.098Z,34.90
2018-07-20T13:30:09.244Z,34.50
2018-07-20T13:32:37.686Z,34.30
2018-07-20T13:35:06.042Z,34.30
2018-07-20T13:37:34.680Z,34.20
2018-07-20T13:40:03.043Z,34.20
2018-07-20T13:42:32.575Z,34.20
2018-07-20T13:45:00.997Z,34.20
2018-07-20T13:47:29.601Z,34.00
2018-07-20T13:49:58.804Z,33.90
2018-07-20T13:52:27.133Z,33.90
2018-07-20T13:54:55.561Z,33.70
2018-07-20T13:57:24.758Z,33.60
2018-07-20T13:59:53.224Z,33.60
2018-07-20T14:02:21.535Z,33.70
2018-07-20T14:04:49.914Z,33.90
2018-07-20T14:07:18.270Z,34.00
2018-07-20T14:09:46.642Z,34.30
2018-07-20T14:12:15.229Z,34.60
2018-07-20T14:14:43.650Z,34.80
2018-07-20T14:17:12.092Z,35.10
2018-07-20T14:19:40.451Z,35.40
2018-07-20T14:22:09.552Z,35.60
2018-07-20T14:24:38.047Z,35.50
2018-07-20T14:27:06.428Z,35.70
2018-07-20T14:29:35.498Z,35.60
2018-07-20T14:32:04.618Z,35.60
2018-07-20T14:34:33.692Z,35.60
2018-07-20T14:37:02.820Z,35.50
2018-07-20T14:39:31.210Z,35.50
2018-07-20T14:41:59.655Z,35.30
2018-07-20T14:44:28.753Z,34.40
2018-07-20T14:46:57.946Z,34.00
2018-07-20T14:49:27.066Z,33.50
2018-07-20T14:51:55.456Z,33.50
2018-07-20T14:54:23.791Z,33.10
2018-07-20T14:56:52.133Z,33.00
2018-07-20T14:59:20.472Z,33.10
2018-07-20T15:01:48.957Z,33.40
2018-07-20T15:04:17.314Z,33.60
2018-07-20T15:06:46.476Z,34.30
2018-07-20T15:09:14.796Z,34.30
2018-07-20T15:11:43.988Z,35.10
2018-07-20T15:14:12.425Z,35.10
2018-07-20T15:16:40.793Z,35.50
2018-07-20T15:19:09.161Z,36.00
2018-07-20T15:21:38.131Z,36.20
2018-07-20T15:24:07.220Z,36.70
2018-07-20T15:26:35.574Z,36.70
2018-07-20T15:29:03.996Z,36.70
2018-07-20T15:31:32.378Z,36.80
2018-07-20T15:34:00.721Z,36.90
2018-07-20T15:36:29.191Z,36.90
2018-07-20T15:38:57.601Z,36.80
2018-07-20T15:41:26.684Z,36.60
2018-07-20T15:43:55.171Z,36.50
2018-07-20T15:46:23.599Z,36.60
2018-07-20T15:48:51.814Z,36.40
2018-07-20T15:51:20.278Z,36.30
2018-07-20T15:53:49.078Z,36.20
2018-07-20T15:56:17.483Z,36.10
2018-07-20T15:58:46.565Z,35.60
2018-07-20T16:01:14.909Z,35.50
2018-07-20T16:03:43.286Z,35.10
2018-07-20T16:06:11.629Z,34.80
2018-07-20T16:08:40.741Z,34.70
2018-07-20T16:11:09.208Z,34.70
2018-07-20T16:13:37.774Z,34.60
2018-07-20T16:16:06.108Z,34.50
2018-07-20T16:18:34.450Z,34.50
2018-07-20T16:21:03.894Z,34.50
2018-07-20T16:23:32.326Z,34.50
2018-07-20T16:26:01.555Z,34.80
2018-07-20T16:28:29.828Z,34.80
2018-07-20T16:30:58.148Z,35.00
2018-07-20T16:33:26.605Z,35.00
2018-07-20T16:35:54.981Z,35.20
2018-07-20T16:38:24.149Z,35.60
2018-07-20T16:40:53.348Z,35.90
2018-07-20T16:43:21.748Z,35.80
2018-07-20T16:45:50.113Z,36.10
2018-07-20T16:48:18.437Z,36.30
2018-07-20T16:50:46.798Z,36.60
2018-07-20T16:53:15.384Z,36.60
2018-07-20T16:55:43.751Z,36.50
2018-07-20T16:58:12.143Z,36.40
2018-07-20T17:00:40.700Z,36.40
2018-07-20T17:03:09.075Z,36.50
2018-07-20T17:05:37.410Z,36.50
2018-07-20T17:08:05.852Z,36.40
2018-07-20T17:10:34.455Z,36.40
2018-07-20T17:13:02.895Z,36.10
2018-07-20T17:15:31.293Z,36.00
2018-07-20T17:17:59.663Z,35.70
2018-07-20T17:20:28.072Z,35.40
2018-07-20T17:22:56.590Z,35.20
2018-07-20T17:25:24.931Z,35.00
2018-07-20T17:27:53.312Z,34.80
2018-07-20T17:30:21.797Z,34.50
2018-07-20T17:32:50.141Z,34.10
2018-07-20T17:35:18.477Z,33.60
2018-07-20T17:37:46.898Z,33.10
2018-07-20T17:40:15.292Z,32.60
2018-07-20T17:42:43.653Z,32.10
2018-07-20T17:45:12.050Z,31.80
2018-07-20T17:47:40.367Z,31.30
2018-07-20T17:50:08.799Z,31.00
2018-07-20T17:52:37.204Z,30.70
2018-07-20T17:55:05.543Z,30.50
2018-07-20T17:57:33.888Z,30.30
2018-07-20T18:00:02.317Z,30.20
2018-07-20T18:02:30.651Z,30.10
2018-07-20T18:04:59.655Z,30.00
2018-07-20T18:07:28.002Z,30.00
2018-07-20T18:09:56.455Z,30.00
2018-07-20T18:12:24.829Z,30.10
2018-07-20T18:14:53.197Z,30.30
2018-07-20T18:17:21.576Z,30.40
2018-07-20T18:19:49.951Z,30.70
2018-07-20T18:22:18.309Z,30.90
2018-07-20T18:24:46.719Z,31.10
2018-07-20T18:27:15.194Z,31.20
2018-07-20T18:29:43.399Z,31.20
2018-07-20T18:32:11.763Z,31.30
2018-07-20T18:34:40.133Z,31.30
2018-07-20T18:37:08.539Z,31.20
2018-07-20T18:39:36.976Z,31.20
2018-07-20T18:42:05.519Z,30.80
2018-07-20T18:44:33.857Z,30.40
2018-07-20T18:47:02.189Z,30.00
2018-07-20T18:49:30.624Z,29.60
2018-07-20T18:51:58.991Z,29.20
2018-07-20T18:54:28.307Z,28.60
2018-07-20T18:56:56.635Z,28.50
2018-07-20T18:59:25.949Z,27.90
2018-07-20T19:01:55.080Z,27.60
2018-07-20T19:04:23.482Z,27.60
2018-07-20T19:06:51.794Z,27.30
2018-07-20T19:09:20.240Z,27.10
2018-07-20T19:11:48.706Z,26.80
2018-07-20T19:14:17.128Z,26.60
2018-07-20T19:16:45.488Z,26.40
2018-07-20T19:19:13.918Z,26.20
2018-07-20T19:21:43.037Z,25.90
2018-07-20T19:24:11.423Z,25.90
2018-07-20T19:26:39.765Z,25.70
2018-07-20T19:29:08.887Z,25.40
2018-07-20T19:31:37.282Z,25.40
2018-07-20T19:34:05.765Z,25.30
2018-07-20T19:36:34.142Z,25.20
2018-07-20T19:39:02.475Z,25.00
2018-07-20T19:41:30.911Z,24.90
2018-07-20T19:43:59.243Z,24.80
2018-07-20T19:46:28.701Z,24.60
2018-07-20T19:48:57.107Z,24.50
2018-07-20T19:51:25.423Z,24.40
2018-07-20T19:53:53.751Z,24.40
2018-07-20T19:56:22.111Z,24.20
2018-07-20T19:58:50.728Z,24.20
2018-07-20T20:01:19.902Z,24.00
2018-07-20T20:03:48.367Z,24.00
2018-07-20T20:06:16.737Z,23.90
2018-07-20T20:08:45.135Z,23.90
2018-07-20T20:11:13.845Z,23.80
2018-07-20T20:13:42.178Z,23.70
2018-07-20T20:16:10.535Z,23.70
2018-07-20T20:18:39.656Z,23.50
2018-07-20T20:21:08.007Z,23.50
2018-07-20T20:23:37.169Z,23.40
2018-07-20T20:26:05.607Z,23.40
2018-07-20T20:28:33.987Z,23.30
2018-07-20T20:31:02.372Z,23.30
2018-07-20T20:33:30.783Z,23.20
2018-07-20T20:35:59.289Z,23.20
2018-07-20T20:38:27.633Z,23.20
2018-07-20T20:40:55.977Z,23.10
2018-07-20T20:43:25.362Z,23.00
2018-07-20T20:45:54.477Z,23.00
2018-07-20T20:48:22.811Z,22.90
2018-07-20T20:50:51.574Z,22.90
2018-07-20T20:53:20.014Z,22.90
2018-07-20T20:55:49.128Z,22.80
2018-07-20T20:58:17.512Z,22.70
2018-07-20T21:00:45.879Z,22.70
2018-07-20T21:03:14.261Z,22.70
2018-07-20T21:05:43.191Z,22.60
2018-07-20T21:08:11.592Z,22.60
2018-07-20T21:10:39.886Z,22.50
2018-07-20T21:13:09.017Z,22.40
2018-07-20T21:15:37.429Z,22.40
2018-07-20T21:18:05.994Z,22.40
2018-07-20T21:20:34.500Z,22.40
2018-07-20T21:23:02.803Z,22.30
2018-07-20T21:25:31.953Z,22.20
2018-07-20T21:28:00.308Z,22.10
2018-07-20T21:30:28.645Z,22.10
2018-07-20T21:32:57.074Z,22.00
2018-07-20T21:35:25.537Z,22.00
2018-07-20T21:37:53.857Z,21.90
2018-07-20T21:40:22.521Z,21.90
2018-07-20T21:42:50.879Z,21.80
2018-07-20T21:45:19.351Z,21.80
2018-07-20T21:47:47.915Z,21.70
2018-07-20T21:50:16.331Z,21.70
2018-07-20T21:52:45.269Z,21.60
2018-07-20T21:55:13.713Z,21.50
2018-07-20T21:57:42.078Z,21.50
2018-07-20T22:00:10.576Z,21.40
2018-07-20T22:02:38.938Z,21.40
2018-07-20T22:05:08.056Z,21.30
2018-07-20T22:07:36.425Z,21.30
2018-07-20T22:10:04.779Z,21.30
2018-07-20T22:12:33.185Z,21.30
2018-07-20T22:15:01.697Z,21.30
2018-07-20T22:17:30.014Z,21.30
2018-07-20T22:19:58.518Z,21.30
2018-07-20T22:22:28.356Z,21.20
2018-07-20T22:24:56.884Z,21.20
2018-07-20T22:27:25.388Z,21.20
2018-07-20T22:29:54.497Z,21.10
2018-07-20T22:32:22.828Z,21.10
2018-07-20T22:34:51.164Z,21.10
2018-07-20T22:37:19.541Z,21.10
2018-07-20T22:39:47.872Z,21.00
2018-07-20T22:42:16.216Z,21.00
2018-07-20T22:44:44.668Z,21.00
2018-07-20T22:47:13.000Z,20.90
2018-07-20T22:49:41.455Z,20.90
2018-07-20T22:52:09.833Z,20.80
2018-07-20T22:54:38.413Z,20.80
2018-07-20T22:57:06.779Z,20.80
2018-07-20T22:59:35.528Z,20.70
2018-07-20T23:02:03.855Z,20.70
2018-07-20T23:04:32.305Z,20.60
2018-07-20T23:07:00.686Z,20.60
2018-07-20T23:09:29.939Z,20.60
2018-07-20T23:11:58.894Z,20.50
2018-07-20T23:14:27.276Z,20.60
2018-07-20T23:16:55.607Z,20.50
2018-07-20T23:19:24.659Z,20.50
2018-07-20T23:21:53.050Z,20.50
2018-07-20T23:24:21.382Z,20.40
2018-07-20T23:26:50.474Z,20.40
2018-07-20T23:29:18.866Z,20.40
2018-07-20T23:31:48.186Z,20.40
2018-07-20T23:34:17.376Z,20.30
2018-07-20T23:36:45.857Z,20.30
2018-07-20T23:39:14.192Z,20.40
2018-07-20T23:41:42.636Z,20.30
2018-07-20T23:44:10.979Z,20.40
2018-07-20T23:46:39.309Z,20.40
2018-07-20T23:49:07.671Z,20.40
2018-07-20T23:51:36.011Z,20.40
2018-07-20T23:54:04.345Z,20.40
2018-07-20T23:56:32.703Z,20.50
2018-07-20T23:59:01.031Z,20.50
